sensor_id;sensor_type;location;lat;lon;timestamp;P1;durP1;ratioP1;P2;durP2;ratioP2
62990;SDS011;49084;48.204;16.202;2022-12-07T00:01:09;13.93;;;7.50;;
62990;SDS011;49084;48.204;16.202;2022-12-07T00:03:37;12.80;;;7.47;;
62990;SDS011;49084;48.204;16.202;2022-12-07T00:06:04;14.02;;;7.35;;
62990;SDS011;49084;48.204;16.202;2022-12-07T00:08:31;13.23;;;8.13;;
62990;SDS011;49084;48.204;16.202;2022-12-07T00:11:04;16.50;;;7.70;;
62990;SDS011;49084;48.204;16.202;2022-12-07T00:13:35;10.32;;;7.45;;
62990;SDS011;49084;48.204;16.202;2022-12-07T00:16:02;12.85;;;8.32;;
62990;SDS011;49084;48.204;16.202;2022-12-07T00:18:28;13.45;;;8.68;;
62990;SDS011;49084;48.204;16.202;2022-12-07T00:20:58;13.63;;;8.65;;
62990;SDS011;49084;48.204;16.202;2022-12-07T00:23:25;13.25;;;8.50;;
62990;SDS011;49084;48.204;16.202;2022-12-07T00:25:51;15.30;;;9.35;;
62990;SDS011;49084;48.204;16.202;2022-12-07T00:28:17;15.32;;;9.75;;
62990;SDS011;49084;48.204;16.202;2022-12-07T00:30:42;16.90;;;9.63;;
62990;SDS011;49084;48.204;16.202;2022-12-07T00:33:08;15.25;;;9.85;;
62990;SDS011;49084;48.204;16.202;2022-12-07T00:35:33;14.20;;;9.43;;
62990;SDS011;49084;48.204;16.202;2022-12-07T00:37:59;16.33;;;10.65;;
62990;SDS011;49084;48.204;16.202;2022-12-07T00:40:25;16.58;;;10.73;;
62990;SDS011;49084;48.204;16.202;2022-12-07T00:42:50;18.02;;;11.48;;
62990;SDS011;49084;48.204;16.202;2022-12-07T00:45:16;17.63;;;10.77;;
62990;SDS011;49084;48.204;16.202;2022-12-07T00:47:41;17.45;;;11.25;;
62990;SDS011;49084;48.204;16.202;2022-12-07T00:50:07;17.23;;;10.88;;
62990;SDS011;49084;48.204;16.202;2022-12-07T00:52:33;18.88;;;10.90;;
62990;SDS011;49084;48.204;16.202;2022-12-07T00:54:58;18.33;;;11.77;;
62990;SDS011;49084;48.204;16.202;2022-12-07T00:57:24;19.13;;;11.07;;
62990;SDS011;49084;48.204;16.202;2022-12-07T00:59:50;18.15;;;11.60;;
62990;SDS011;49084;48.204;16.202;2022-12-07T01:02:20;17.27;;;11.05;;
62990;SDS011;49084;48.204;16.202;2022-12-07T01:04:46;19.70;;;11.93;;
62990;SDS011;49084;48.204;16.202;2022-12-07T01:07:11;20.48;;;11.48;;
62990;SDS011;49084;48.204;16.202;2022-12-07T01:09:37;19.35;;;11.93;;
62990;SDS011;49084;48.204;16.202;2022-12-07T01:12:02;18.10;;;11.63;;
62990;SDS011;49084;48.204;16.202;2022-12-07T01:14:28;18.88;;;11.85;;
62990;SDS011;49084;48.204;16.202;2022-12-07T01:16:54;20.63;;;12.27;;
62990;SDS011;49084;48.204;16.202;2022-12-07T01:19:20;17.67;;;11.45;;
62990;SDS011;49084;48.204;16.202;2022-12-07T01:21:45;18.38;;;12.50;;
62990;SDS011;49084;48.204;16.202;2022-12-07T01:24:11;20.25;;;12.77;;
62990;SDS011;49084;48.204;16.202;2022-12-07T01:26:37;20.13;;;13.02;;
62990;SDS011;49084;48.204;16.202;2022-12-07T01:29:03;21.13;;;12.57;;
62990;SDS011;49084;48.204;16.202;2022-12-07T01:31:29;20.63;;;12.32;;
62990;SDS011;49084;48.204;16.202;2022-12-07T01:33:57;19.35;;;13.10;;
62990;SDS011;49084;48.204;16.202;2022-12-07T01:36:25;21.38;;;13.52;;
62990;SDS011;49084;48.204;16.202;2022-12-07T01:38:54;19.85;;;13.27;;
62990;SDS011;49084;48.204;16.202;2022-12-07T01:41:23;21.92;;;12.52;;
62990;SDS011;49084;48.204;16.202;2022-12-07T01:46:56;20.92;;;13.32;;
62990;SDS011;49084;48.204;16.202;2022-12-07T01:51:57;23.65;;;13.43;;
62990;SDS011;49084;48.204;16.202;2022-12-07T01:54:57;21.95;;;12.82;;
62990;SDS011;49084;48.204;16.202;2022-12-07T01:57:32;24.95;;;13.52;;
62990;SDS011;49084;48.204;16.202;2022-12-07T02:00:01;20.45;;;12.90;;
62990;SDS011;49084;48.204;16.202;2022-12-07T02:02:30;20.90;;;13.32;;
62990;SDS011;49084;48.204;16.202;2022-12-07T02:05:04;20.63;;;12.52;;
62990;SDS011;49084;48.204;16.202;2022-12-07T02:07:31;21.75;;;13.10;;
62990;SDS011;49084;48.204;16.202;2022-12-07T02:10:19;20.70;;;10.32;;
62990;SDS011;49084;48.204;16.202;2022-12-07T02:12:48;21.90;;;12.48;;
62990;SDS011;49084;48.204;16.202;2022-12-07T02:15:22;20.77;;;11.93;;
62990;SDS011;49084;48.204;16.202;2022-12-07T02:29:04;19.38;;;12.23;;
62990;SDS011;49084;48.204;16.202;2022-12-07T02:32:12;19.35;;;11.60;;
62990;SDS011;49084;48.204;16.202;2022-12-07T02:34:51;19.70;;;12.13;;
62990;SDS011;49084;48.204;16.202;2022-12-07T02:40:22;19.00;;;11.95;;
62990;SDS011;49084;48.204;16.202;2022-12-07T02:43:19;20.52;;;11.57;;
62990;SDS011;49084;48.204;16.202;2022-12-07T02:45:50;19.95;;;11.07;;
62990;SDS011;49084;48.204;16.202;2022-12-07T02:48:18;21.02;;;11.15;;
62990;SDS011;49084;48.204;16.202;2022-12-07T02:50:49;20.65;;;11.20;;
62990;SDS011;49084;48.204;16.202;2022-12-07T02:53:35;21.65;;;12.10;;
62990;SDS011;49084;48.204;16.202;2022-12-07T02:58:40;19.65;;;11.00;;
62990;SDS011;49084;48.204;16.202;2022-12-07T03:07:34;19.13;;;10.77;;
62990;SDS011;49084;48.204;16.202;2022-12-07T03:13:23;20.23;;;11.65;;
62990;SDS011;49084;48.204;16.202;2022-12-07T03:15:54;17.65;;;10.45;;
62990;SDS011;49084;48.204;16.202;2022-12-07T03:18:21;19.48;;;10.68;;
62990;SDS011;49084;48.204;16.202;2022-12-07T03:20:51;18.65;;;10.75;;
62990;SDS011;49084;48.204;16.202;2022-12-07T03:23:20;17.85;;;10.93;;
62990;SDS011;49084;48.204;16.202;2022-12-07T03:25:49;16.73;;;9.52;;
62990;SDS011;49084;48.204;16.202;2022-12-07T03:28:21;15.05;;;10.30;;
62990;SDS011;49084;48.204;16.202;2022-12-07T03:30:54;17.42;;;9.82;;
62990;SDS011;49084;48.204;16.202;2022-12-07T03:33:26;18.23;;;10.35;;
62990;SDS011;49084;48.204;16.202;2022-12-07T03:41:46;16.02;;;8.85;;
62990;SDS011;49084;48.204;16.202;2022-12-07T03:44:12;17.30;;;9.43;;
62990;SDS011;49084;48.204;16.202;2022-12-07T03:52:23;15.55;;;9.18;;
62990;SDS011;49084;48.204;16.202;2022-12-07T03:54:53;15.35;;;9.38;;
62990;SDS011;49084;48.204;16.202;2022-12-07T03:57:21;14.95;;;8.73;;
62990;SDS011;49084;48.204;16.202;2022-12-07T03:59:48;15.82;;;9.27;;
62990;SDS011;49084;48.204;16.202;2022-12-07T04:02:15;14.52;;;8.98;;
62990;SDS011;49084;48.204;16.202;2022-12-07T04:04:41;15.80;;;9.30;;
62990;SDS011;49084;48.204;16.202;2022-12-07T04:07:08;17.55;;;8.52;;
62990;SDS011;49084;48.204;16.202;2022-12-07T04:09:34;14.02;;;8.88;;
62990;SDS011;49084;48.204;16.202;2022-12-07T04:12:00;14.32;;;8.52;;
62990;SDS011;49084;48.204;16.202;2022-12-07T04:14:25;14.55;;;9.15;;
62990;SDS011;49084;48.204;16.202;2022-12-07T04:16:52;16.52;;;9.65;;
62990;SDS011;49084;48.204;16.202;2022-12-07T04:19:22;16.10;;;8.80;;
62990;SDS011;49084;48.204;16.202;2022-12-07T04:21:52;15.35;;;8.88;;
62990;SDS011;49084;48.204;16.202;2022-12-07T04:24:18;14.15;;;8.32;;
62990;SDS011;49084;48.204;16.202;2022-12-07T04:26:45;15.00;;;8.80;;
62990;SDS011;49084;48.204;16.202;2022-12-07T04:29:11;15.77;;;9.13;;
62990;SDS011;49084;48.204;16.202;2022-12-07T04:31:37;14.90;;;8.05;;
62990;SDS011;49084;48.204;16.202;2022-12-07T04:34:04;13.98;;;8.85;;
62990;SDS011;49084;48.204;16.202;2022-12-07T04:36:31;14.00;;;8.55;;
62990;SDS011;49084;48.204;16.202;2022-12-07T04:38:57;12.70;;;7.82;;
62990;SDS011;49084;48.204;16.202;2022-12-07T04:41:23;14.07;;;8.27;;
62990;SDS011;49084;48.204;16.202;2022-12-07T04:43:56;12.80;;;7.70;;
62990;SDS011;49084;48.204;16.202;2022-12-07T04:46:23;13.77;;;9.05;;
62990;SDS011;49084;48.204;16.202;2022-12-07T04:48:50;14.75;;;8.57;;
62990;SDS011;49084;48.204;16.202;2022-12-07T04:51:18;13.57;;;7.32;;
62990;SDS011;49084;48.204;16.202;2022-12-07T04:53:46;12.00;;;7.32;;
62990;SDS011;49084;48.204;16.202;2022-12-07T04:56:13;12.48;;;7.10;;
62990;SDS011;49084;48.204;16.202;2022-12-07T04:58:39;12.10;;;7.63;;
62990;SDS011;49084;48.204;16.202;2022-12-07T05:01:06;12.95;;;7.85;;
62990;SDS011;49084;48.204;16.202;2022-12-07T05:03:32;12.27;;;7.43;;
62990;SDS011;49084;48.204;16.202;2022-12-07T05:05:57;12.20;;;7.63;;
62990;SDS011;49084;48.204;16.202;2022-12-07T05:08:23;13.75;;;7.50;;
62990;SDS011;49084;48.204;16.202;2022-12-07T05:10:49;13.25;;;7.55;;
62990;SDS011;49084;48.204;16.202;2022-12-07T05:13:14;12.15;;;6.50;;
62990;SDS011;49084;48.204;16.202;2022-12-07T05:15:40;13.25;;;7.47;;
62990;SDS011;49084;48.204;16.202;2022-12-07T05:18:08;10.97;;;6.87;;
62990;SDS011;49084;48.204;16.202;2022-12-07T05:20:37;11.55;;;6.38;;
62990;SDS011;49084;48.204;16.202;2022-12-07T05:23:03;11.32;;;6.85;;
62990;SDS011;49084;48.204;16.202;2022-12-07T05:25:29;9.15;;;5.95;;
62990;SDS011;49084;48.204;16.202;2022-12-07T05:27:55;12.00;;;6.63;;
62990;SDS011;49084;48.204;16.202;2022-12-07T05:30:21;10.63;;;6.50;;
62990;SDS011;49084;48.204;16.202;2022-12-07T05:32:48;10.32;;;6.55;;
62990;SDS011;49084;48.204;16.202;2022-12-07T05:35:13;14.50;;;6.63;;
62990;SDS011;49084;48.204;16.202;2022-12-07T05:37:39;9.68;;;6.47;;
62990;SDS011;49084;48.204;16.202;2022-12-07T05:40:05;8.48;;;5.80;;
62990;SDS011;49084;48.204;16.202;2022-12-07T05:42:31;11.45;;;6.75;;
62990;SDS011;49084;48.204;16.202;2022-12-07T05:44:57;10.07;;;6.22;;
62990;SDS011;49084;48.204;16.202;2022-12-07T05:47:22;9.23;;;6.32;;
62990;SDS011;49084;48.204;16.202;2022-12-07T05:49:48;11.43;;;6.32;;
62990;SDS011;49084;48.204;16.202;2022-12-07T05:52:14;10.52;;;6.18;;
62990;SDS011;49084;48.204;16.202;2022-12-07T05:54:39;9.25;;;6.00;;
62990;SDS011;49084;48.204;16.202;2022-12-07T05:57:05;8.93;;;6.03;;
62990;SDS011;49084;48.204;16.202;2022-12-07T05:59:30;10.52;;;6.15;;
62990;SDS011;49084;48.204;16.202;2022-12-07T06:01:57;10.13;;;6.10;;
62990;SDS011;49084;48.204;16.202;2022-12-07T06:04:25;10.43;;;5.57;;
62990;SDS011;49084;48.204;16.202;2022-12-07T06:06:53;8.68;;;5.25;;
62990;SDS011;49084;48.204;16.202;2022-12-07T06:09:19;11.40;;;6.13;;
62990;SDS011;49084;48.204;16.202;2022-12-07T06:11:46;10.75;;;6.22;;
62990;SDS011;49084;48.204;16.202;2022-12-07T06:14:32;10.38;;;6.13;;
62990;SDS011;49084;48.204;16.202;2022-12-07T06:16:58;13.88;;;6.85;;
62990;SDS011;49084;48.204;16.202;2022-12-07T06:19:24;10.02;;;5.85;;
62990;SDS011;49084;48.204;16.202;2022-12-07T06:21:50;9.07;;;5.82;;
62990;SDS011;49084;48.204;16.202;2022-12-07T06:24:16;10.77;;;5.88;;
62990;SDS011;49084;48.204;16.202;2022-12-07T06:26:43;11.93;;;5.93;;
62990;SDS011;49084;48.204;16.202;2022-12-07T06:29:09;10.25;;;6.68;;
62990;SDS011;49084;48.204;16.202;2022-12-07T06:31:35;8.82;;;5.30;;
62990;SDS011;49084;48.204;16.202;2022-12-07T06:34:03;9.32;;;5.72;;
62990;SDS011;49084;48.204;16.202;2022-12-07T06:36:34;9.68;;;6.03;;
62990;SDS011;49084;48.204;16.202;2022-12-07T06:39:00;8.65;;;5.72;;
62990;SDS011;49084;48.204;16.202;2022-12-07T06:41:27;10.18;;;5.80;;
62990;SDS011;49084;48.204;16.202;2022-12-07T06:43:53;9.50;;;5.45;;
62990;SDS011;49084;48.204;16.202;2022-12-07T06:46:18;9.38;;;5.63;;
62990;SDS011;49084;48.204;16.202;2022-12-07T06:48:45;15.23;;;5.78;;
62990;SDS011;49084;48.204;16.202;2022-12-07T06:51:10;9.48;;;5.78;;
62990;SDS011;49084;48.204;16.202;2022-12-07T06:53:36;12.27;;;6.00;;
62990;SDS011;49084;48.204;16.202;2022-12-07T06:56:02;8.05;;;5.35;;
62990;SDS011;49084;48.204;16.202;2022-12-07T06:58:29;9.43;;;4.80;;
62990;SDS011;49084;48.204;16.202;2022-12-07T07:00:55;7.05;;;4.85;;
62990;SDS011;49084;48.204;16.202;2022-12-07T07:03:20;8.60;;;5.25;;
62990;SDS011;49084;48.204;16.202;2022-12-07T07:05:46;9.68;;;5.60;;
62990;SDS011;49084;48.204;16.202;2022-12-07T07:08:12;8.45;;;5.32;;
62990;SDS011;49084;48.204;16.202;2022-12-07T07:10:38;10.77;;;5.70;;
62990;SDS011;49084;48.204;16.202;2022-12-07T07:13:04;11.43;;;5.72;;
62990;SDS011;49084;48.204;16.202;2022-12-07T07:15:30;8.27;;;5.40;;
62990;SDS011;49084;48.204;16.202;2022-12-07T07:17:56;8.60;;;5.00;;
62990;SDS011;49084;48.204;16.202;2022-12-07T07:20:22;10.07;;;6.30;;
62990;SDS011;49084;48.204;16.202;2022-12-07T07:22:48;8.00;;;5.72;;
62990;SDS011;49084;48.204;16.202;2022-12-07T07:25:14;9.48;;;5.78;;
62990;SDS011;49084;48.204;16.202;2022-12-07T07:27:40;7.82;;;5.57;;
62990;SDS011;49084;48.204;16.202;2022-12-07T07:30:06;9.52;;;5.93;;
62990;SDS011;49084;48.204;16.202;2022-12-07T07:32:33;9.57;;;5.65;;
62990;SDS011;49084;48.204;16.202;2022-12-07T07:34:59;6.75;;;5.47;;
62990;SDS011;49084;48.204;16.202;2022-12-07T07:37:24;9.07;;;5.97;;
62990;SDS011;49084;48.204;16.202;2022-12-07T07:39:50;8.93;;;5.95;;
62990;SDS011;49084;48.204;16.202;2022-12-07T07:42:16;7.88;;;5.95;;
62990;SDS011;49084;48.204;16.202;2022-12-07T07:44:42;9.63;;;6.28;;
62990;SDS011;49084;48.204;16.202;2022-12-07T07:47:08;8.57;;;5.53;;
62990;SDS011;49084;48.204;16.202;2022-12-07T07:49:33;9.07;;;6.10;;
62990;SDS011;49084;48.204;16.202;2022-12-07T07:51:59;7.97;;;5.10;;
62990;SDS011;49084;48.204;16.202;2022-12-07T07:54:25;11.20;;;5.88;;
62990;SDS011;49084;48.204;16.202;2022-12-07T07:56:51;8.05;;;5.70;;
62990;SDS011;49084;48.204;16.202;2022-12-07T07:59:17;9.07;;;5.72;;
62990;SDS011;49084;48.204;16.202;2022-12-07T08:01:43;8.13;;;5.82;;
62990;SDS011;49084;48.204;16.202;2022-12-07T08:04:09;9.85;;;5.80;;
62990;SDS011;49084;48.204;16.202;2022-12-07T08:06:35;9.35;;;5.93;;
62990;SDS011;49084;48.204;16.202;2022-12-07T08:09:00;10.00;;;5.50;;
62990;SDS011;49084;48.204;16.202;2022-12-07T08:11:26;11.00;;;6.53;;
62990;SDS011;49084;48.204;16.202;2022-12-07T08:13:52;8.50;;;5.38;;
62990;SDS011;49084;48.204;16.202;2022-12-07T08:16:17;7.13;;;5.20;;
62990;SDS011;49084;48.204;16.202;2022-12-07T08:18:43;8.73;;;5.40;;
62990;SDS011;49084;48.204;16.202;2022-12-07T08:21:13;7.22;;;5.05;;
62990;SDS011;49084;48.204;16.202;2022-12-07T08:23:40;9.77;;;5.30;;
62990;SDS011;49084;48.204;16.202;2022-12-07T08:26:07;9.48;;;5.47;;
62990;SDS011;49084;48.204;16.202;2022-12-07T08:28:35;10.15;;;5.63;;
62990;SDS011;49084;48.204;16.202;2022-12-07T08:31:02;10.38;;;5.05;;
62990;SDS011;49084;48.204;16.202;2022-12-07T08:33:29;9.07;;;5.30;;
62990;SDS011;49084;48.204;16.202;2022-12-07T08:35:59;9.85;;;5.45;;
62990;SDS011;49084;48.204;16.202;2022-12-07T08:38:29;9.52;;;5.50;;
62990;SDS011;49084;48.204;16.202;2022-12-07T08:40:56;10.27;;;5.82;;
62990;SDS011;49084;48.204;16.202;2022-12-07T08:43:22;7.57;;;5.32;;
62990;SDS011;49084;48.204;16.202;2022-12-07T08:45:48;9.55;;;4.90;;
62990;SDS011;49084;48.204;16.202;2022-12-07T08:51:21;7.55;;;5.30;;
62990;SDS011;49084;48.204;16.202;2022-12-07T08:53:48;8.35;;;5.38;;
62990;SDS011;49084;48.204;16.202;2022-12-07T08:56:15;6.68;;;5.13;;
62990;SDS011;49084;48.204;16.202;2022-12-07T08:58:41;6.90;;;4.85;;
62990;SDS011;49084;48.204;16.202;2022-12-07T09:01:08;7.88;;;5.18;;
62990;SDS011;49084;48.204;16.202;2022-12-07T09:03:33;8.25;;;5.18;;
62990;SDS011;49084;48.204;16.202;2022-12-07T09:05:59;9.05;;;5.38;;
62990;SDS011;49084;48.204;16.202;2022-12-07T09:08:26;7.65;;;5.72;;
62990;SDS011;49084;48.204;16.202;2022-12-07T09:10:58;9.30;;;5.25;;
62990;SDS011;49084;48.204;16.202;2022-12-07T09:13:23;9.48;;;5.20;;
62990;SDS011;49084;48.204;16.202;2022-12-07T09:15:50;10.43;;;5.75;;
62990;SDS011;49084;48.204;16.202;2022-12-07T09:18:16;8.68;;;5.63;;
62990;SDS011;49084;48.204;16.202;2022-12-07T09:20:41;6.80;;;5.22;;
62990;SDS011;49084;48.204;16.202;2022-12-07T09:23:07;6.32;;;5.15;;
62990;SDS011;49084;48.204;16.202;2022-12-07T09:25:34;7.57;;;5.57;;
62990;SDS011;49084;48.204;16.202;2022-12-07T09:27:59;8.50;;;5.75;;
62990;SDS011;49084;48.204;16.202;2022-12-07T09:30:26;7.72;;;5.78;;
62990;SDS011;49084;48.204;16.202;2022-12-07T09:32:52;7.15;;;5.57;;
62990;SDS011;49084;48.204;16.202;2022-12-07T09:35:19;9.10;;;6.25;;
62990;SDS011;49084;48.204;16.202;2022-12-07T09:37:45;8.80;;;5.88;;
62990;SDS011;49084;48.204;16.202;2022-12-07T09:40:11;8.43;;;5.88;;
62990;SDS011;49084;48.204;16.202;2022-12-07T09:42:38;9.70;;;5.80;;
62990;SDS011;49084;48.204;16.202;2022-12-07T09:45:15;7.55;;;5.53;;
62990;SDS011;49084;48.204;16.202;2022-12-07T09:48:04;11.32;;;5.50;;
62990;SDS011;49084;48.204;16.202;2022-12-07T09:50:39;6.70;;;5.72;;
62990;SDS011;49084;48.204;16.202;2022-12-07T09:53:07;7.30;;;5.93;;
62990;SDS011;49084;48.204;16.202;2022-12-07T09:55:37;6.28;;;5.20;;
62990;SDS011;49084;48.204;16.202;2022-12-07T09:58:05;8.10;;;5.83;;
62990;SDS011;49084;48.204;16.202;2022-12-07T10:00:31;7.25;;;5.32;;
62990;SDS011;49084;48.204;16.202;2022-12-07T10:02:58;8.48;;;5.38;;
62990;SDS011;49084;48.204;16.202;2022-12-07T10:05:35;5.60;;;3.83;;
62990;SDS011;49084;48.204;16.202;2022-12-07T10:08:08;5.93;;;5.18;;
62990;SDS011;49084;48.204;16.202;2022-12-07T10:10:37;5.88;;;5.25;;
62990;SDS011;49084;48.204;16.202;2022-12-07T10:13:08;6.55;;;5.05;;
62990;SDS011;49084;48.204;16.202;2022-12-07T10:18:31;6.38;;;4.65;;
62990;SDS011;49084;48.204;16.202;2022-12-07T10:21:05;5.95;;;4.40;;
62990;SDS011;49084;48.204;16.202;2022-12-07T10:23:32;7.97;;;4.97;;
62990;SDS011;49084;48.204;16.202;2022-12-07T10:25:59;8.23;;;4.32;;
62990;SDS011;49084;48.204;16.202;2022-12-07T10:28:35;7.82;;;5.07;;
62990;SDS011;49084;48.204;16.202;2022-12-07T10:31:02;5.53;;;4.25;;
62990;SDS011;49084;48.204;16.202;2022-12-07T10:33:59;16.23;;;5.50;;
62990;SDS011;49084;48.204;16.202;2022-12-07T10:36:33;9.15;;;5.10;;
62990;SDS011;49084;48.204;16.202;2022-12-07T10:44:48;10.15;;;5.32;;
62990;SDS011;49084;48.204;16.202;2022-12-07T10:47:25;8.45;;;5.28;;
62990;SDS011;49084;48.204;16.202;2022-12-07T11:01:33;8.27;;;4.85;;
62990;SDS011;49084;48.204;16.202;2022-12-07T11:06:53;8.35;;;5.25;;
62990;SDS011;49084;48.204;16.202;2022-12-07T11:14:59;7.10;;;4.75;;
62990;SDS011;49084;48.204;16.202;2022-12-07T11:17:36;8.50;;;4.75;;
62990;SDS011;49084;48.204;16.202;2022-12-07T11:23:17;6.00;;;4.20;;
62990;SDS011;49084;48.204;16.202;2022-12-07T11:31:07;5.72;;;3.83;;
62990;SDS011;49084;48.204;16.202;2022-12-07T11:33:53;7.88;;;3.80;;
62990;SDS011;49084;48.204;16.202;2022-12-07T11:36:41;6.03;;;3.50;;
62990;SDS011;49084;48.204;16.202;2022-12-07T11:41:46;4.03;;;3.25;;
62990;SDS011;49084;48.204;16.202;2022-12-07T11:53:02;4.47;;;3.65;;
62990;SDS011;49084;48.204;16.202;2022-12-07T11:58:04;5.65;;;4.38;;
62990;SDS011;49084;48.204;16.202;2022-12-07T12:00:46;4.80;;;3.97;;
62990;SDS011;49084;48.204;16.202;2022-12-07T12:03:21;7.38;;;4.20;;
62990;SDS011;49084;48.204;16.202;2022-12-07T12:05:55;5.05;;;4.03;;
62990;SDS011;49084;48.204;16.202;2022-12-07T12:08:23;6.70;;;3.80;;
62990;SDS011;49084;48.204;16.202;2022-12-07T12:21:26;4.85;;;4.22;;
62990;SDS011;49084;48.204;16.202;2022-12-07T12:23:58;4.63;;;3.95;;
62990;SDS011;49084;48.204;16.202;2022-12-07T12:26:29;6.13;;;4.78;;
62990;SDS011;49084;48.204;16.202;2022-12-07T12:33:59;7.00;;;3.90;;
62990;SDS011;49084;48.204;16.202;2022-12-07T12:39:12;4.97;;;3.80;;
62990;SDS011;49084;48.204;16.202;2022-12-07T12:51:49;6.00;;;4.57;;
62990;SDS011;49084;48.204;16.202;2022-12-07T12:54:28;7.38;;;4.88;;
62990;SDS011;49084;48.204;16.202;2022-12-07T12:59:42;7.80;;;5.50;;
62990;SDS011;49084;48.204;16.202;2022-12-07T13:21:02;8.95;;;4.90;;
62990;SDS011;49084;48.204;16.202;2022-12-07T13:28:39;9.82;;;6.38;;
62990;SDS011;49084;48.204;16.202;2022-12-07T13:33:59;7.82;;;5.65;;
62990;SDS011;49084;48.204;16.202;2022-12-07T13:36:30;8.95;;;5.63;;
62990;SDS011;49084;48.204;16.202;2022-12-07T13:39:19;7.45;;;5.25;;
62990;SDS011;49084;48.204;16.202;2022-12-07T13:42:31;6.60;;;5.13;;
62990;SDS011;49084;48.204;16.202;2022-12-07T13:44:45;9.63;;;4.97;;
62990;SDS011;49084;48.204;16.202;2022-12-07T13:47:18;8.40;;;6.22;;
62990;SDS011;49084;48.204;16.202;2022-12-07T13:49:53;8.95;;;6.18;;
62990;SDS011;49084;48.204;16.202;2022-12-07T13:52:25;10.52;;;6.00;;
62990;SDS011;49084;48.204;16.202;2022-12-07T13:55:01;10.52;;;5.78;;
62990;SDS011;49084;48.204;16.202;2022-12-07T13:57:42;9.55;;;6.25;;
62990;SDS011;49084;48.204;16.202;2022-12-07T14:00:16;9.02;;;5.97;;
62990;SDS011;49084;48.204;16.202;2022-12-07T14:05:42;9.18;;;5.88;;
62990;SDS011;49084;48.204;16.202;2022-12-07T14:10:42;10.85;;;6.32;;
62990;SDS011;49084;48.204;16.202;2022-12-07T14:16:00;11.48;;;6.55;;
62990;SDS011;49084;48.204;16.202;2022-12-07T14:18:35;9.75;;;6.28;;
62990;SDS011;49084;48.204;16.202;2022-12-07T14:21:22;9.55;;;6.00;;
62990;SDS011;49084;48.204;16.202;2022-12-07T14:26:44;11.50;;;6.72;;
62990;SDS011;49084;48.204;16.202;2022-12-07T14:31:55;13.73;;;7.43;;
62990;SDS011;49084;48.204;16.202;2022-12-07T14:36:48;11.10;;;7.25;;
62990;SDS011;49084;48.204;16.202;2022-12-07T14:39:14;10.13;;;6.55;;
62990;SDS011;49084;48.204;16.202;2022-12-07T14:41:39;9.20;;;5.97;;
62990;SDS011;49084;48.204;16.202;2022-12-07T14:44:18;12.95;;;6.70;;
62990;SDS011;49084;48.204;16.202;2022-12-07T14:46:45;8.82;;;6.15;;
62990;SDS011;49084;48.204;16.202;2022-12-07T14:49:12;9.15;;;6.50;;
62990;SDS011;49084;48.204;16.202;2022-12-07T14:51:38;11.25;;;6.65;;
62990;SDS011;49084;48.204;16.202;2022-12-07T14:54:05;12.82;;;6.85;;
62990;SDS011;49084;48.204;16.202;2022-12-07T14:56:34;11.27;;;6.55;;
62990;SDS011;49084;48.204;16.202;2022-12-07T14:59:00;10.30;;;5.93;;
62990;SDS011;49084;48.204;16.202;2022-12-07T15:01:25;20.83;;;7.22;;
62990;SDS011;49084;48.204;16.202;2022-12-07T15:03:51;10.75;;;6.88;;
62990;SDS011;49084;48.204;16.202;2022-12-07T15:06:17;11.23;;;7.20;;
62990;SDS011;49084;48.204;16.202;2022-12-07T15:08:43;13.48;;;7.63;;
62990;SDS011;49084;48.204;16.202;2022-12-07T15:11:11;11.07;;;6.88;;
62990;SDS011;49084;48.204;16.202;2022-12-07T15:13:41;10.63;;;6.68;;
62990;SDS011;49084;48.204;16.202;2022-12-07T15:16:42;10.88;;;7.10;;
62990;SDS011;49084;48.204;16.202;2022-12-07T15:19:15;13.70;;;7.45;;
62990;SDS011;49084;48.204;16.202;2022-12-07T15:21:48;15.32;;;8.00;;
62990;SDS011;49084;48.204;16.202;2022-12-07T15:24:14;10.05;;;6.70;;
62990;SDS011;49084;48.204;16.202;2022-12-07T15:26:40;14.55;;;6.95;;
62990;SDS011;49084;48.204;16.202;2022-12-07T15:29:06;12.05;;;8.07;;
62990;SDS011;49084;48.204;16.202;2022-12-07T15:31:32;12.38;;;7.78;;
62990;SDS011;49084;48.204;16.202;2022-12-07T15:33:58;11.70;;;7.97;;
62990;SDS011;49084;48.204;16.202;2022-12-07T15:36:25;11.63;;;6.88;;
62990;SDS011;49084;48.204;16.202;2022-12-07T15:38:53;11.15;;;7.47;;
62990;SDS011;49084;48.204;16.202;2022-12-07T15:41:20;16.50;;;8.15;;
62990;SDS011;49084;48.204;16.202;2022-12-07T15:43:45;11.30;;;6.63;;
62990;SDS011;49084;48.204;16.202;2022-12-07T15:46:31;14.10;;;8.40;;
62990;SDS011;49084;48.204;16.202;2022-12-07T15:48:58;15.20;;;7.55;;
62990;SDS011;49084;48.204;16.202;2022-12-07T15:51:23;12.38;;;7.72;;
62990;SDS011;49084;48.204;16.202;2022-12-07T15:53:49;13.85;;;7.88;;
62990;SDS011;49084;48.204;16.202;2022-12-07T15:56:15;12.88;;;7.70;;
62990;SDS011;49084;48.204;16.202;2022-12-07T15:58:40;11.70;;;7.32;;
62990;SDS011;49084;48.204;16.202;2022-12-07T16:01:10;12.15;;;7.90;;
62990;SDS011;49084;48.204;16.202;2022-12-07T16:03:36;12.07;;;7.60;;
62990;SDS011;49084;48.204;16.202;2022-12-07T16:06:03;24.38;;;10.27;;
62990;SDS011;49084;48.204;16.202;2022-12-07T16:08:29;14.05;;;7.82;;
62990;SDS011;49084;48.204;16.202;2022-12-07T16:10:54;18.92;;;8.50;;
62990;SDS011;49084;48.204;16.202;2022-12-07T16:13:20;13.13;;;8.07;;
62990;SDS011;49084;48.204;16.202;2022-12-07T16:15:46;16.65;;;8.30;;
62990;SDS011;49084;48.204;16.202;2022-12-07T16:18:12;13.45;;;7.65;;
62990;SDS011;49084;48.204;16.202;2022-12-07T16:20:37;12.43;;;8.20;;
62990;SDS011;49084;48.204;16.202;2022-12-07T16:23:04;15.93;;;8.27;;
62990;SDS011;49084;48.204;16.202;2022-12-07T16:25:30;14.05;;;8.57;;
62990;SDS011;49084;48.204;16.202;2022-12-07T16:27:56;17.33;;;8.68;;
62990;SDS011;49084;48.204;16.202;2022-12-07T16:30:21;15.23;;;8.05;;
62990;SDS011;49084;48.204;16.202;2022-12-07T16:32:47;16.80;;;8.60;;
62990;SDS011;49084;48.204;16.202;2022-12-07T16:35:12;13.07;;;7.80;;
62990;SDS011;49084;48.204;16.202;2022-12-07T16:37:38;14.82;;;9.00;;
62990;SDS011;49084;48.204;16.202;2022-12-07T16:40:06;15.65;;;8.68;;
62990;SDS011;49084;48.204;16.202;2022-12-07T16:42:33;12.75;;;8.02;;
62990;SDS011;49084;48.204;16.202;2022-12-07T16:45:00;12.52;;;7.65;;
62990;SDS011;49084;48.204;16.202;2022-12-07T16:47:26;13.63;;;8.40;;
62990;SDS011;49084;48.204;16.202;2022-12-07T16:49:52;14.13;;;7.93;;
62990;SDS011;49084;48.204;16.202;2022-12-07T16:52:18;14.00;;;8.77;;
62990;SDS011;49084;48.204;16.202;2022-12-07T16:54:45;14.38;;;8.30;;
62990;SDS011;49084;48.204;16.202;2022-12-07T16:57:12;14.63;;;8.30;;
62990;SDS011;49084;48.204;16.202;2022-12-07T16:59:38;16.08;;;8.43;;
62990;SDS011;49084;48.204;16.202;2022-12-07T17:02:03;14.68;;;8.30;;
62990;SDS011;49084;48.204;16.202;2022-12-07T17:04:31;14.70;;;8.48;;
62990;SDS011;49084;48.204;16.202;2022-12-07T17:06:58;15.68;;;7.55;;
62990;SDS011;49084;48.204;16.202;2022-12-07T17:09:24;17.13;;;8.15;;
62990;SDS011;49084;48.204;16.202;2022-12-07T17:11:49;12.50;;;7.78;;
62990;SDS011;49084;48.204;16.202;2022-12-07T17:14:16;19.27;;;8.82;;
62990;SDS011;49084;48.204;16.202;2022-12-07T17:17:08;20.15;;;9.88;;
62990;SDS011;49084;48.204;16.202;2022-12-07T17:19:34;26.83;;;11.20;;
62990;SDS011;49084;48.204;16.202;2022-12-07T17:21:59;24.65;;;11.63;;
62990;SDS011;49084;48.204;16.202;2022-12-07T17:24:25;20.58;;;9.13;;